Time;durP1;ratioP1;P1;durP2;ratioP2;P2;SDS_P1;SDS_P2;PMS_P1;PMS_P2;Temp;Humidity;BMP_temperature;BMP_pressure;BME280_temperature;BME280_humidity;BME280_pressure;Samples;Min_cycle;Max_cycle;Signal;HPM_P1;HPM_P2
2022/05/03 00:02:24;;;;;;;9.50;7.45;;;8.00;99.90;;;;;;5049815;28;20096;-70
2022/05/03 00:05:12;;;;;;;9.68;7.38;;;8.00;99.90;;;;;;5083414;28;20242;-69
2022/05/03 00:07:53;;;;;;;9.25;6.85;;;8.00;99.90;;;;;;5060968;28;20080;-69
2022/05/03 00:10:28;;;;;;;8.60;7.07;;;7.90;99.90;;;;;;5097152;28;20062;-70
2022/05/03 00:13:05;;;;;;;9.32;7.25;;;8.00;99.90;;;;;;5070089;28;20210;-68
2022/05/03 00:15:35;;;;;;;9.60;7.30;;;7.90;99.90;;;;;;5072247;28;20218;-68
2022/05/03 00:18:02;;;;;;;8.45;6.97;;;7.90;99.90;;;;;;5060670;28;20036;-69
2022/05/03 00:20:29;;;;;;;7.80;6.18;;;7.90;99.90;;;;;;5081608;28;20043;-68
2022/05/03 00:22:56;;;;;;;9.43;6.80;;;7.90;99.90;;;;;;5041738;28;20052;-68
2022/05/03 00:25:22;;;;;;;9.07;6.57;;;7.90;99.90;;;;;;5042501;28;20033;-68
2022/05/03 00:27:49;;;;;;;9.13;6.82;;;7.90;99.90;;;;;;5063222;28;20036;-68
2022/05/03 00:30:15;;;;;;;9.35;7.95;;;8.00;99.90;;;;;;5062581;28;20032;-69
2022/05/03 00:32:41;;;;;;;11.82;8.35;;;8.10;99.90;;;;;;5106467;27;20125;-68
2022/05/03 00:35:11;;;;;;;15.30;8.50;;;8.10;99.90;;;;;;5103962;27;20054;-69
2022/05/03 00:37:37;;;;;;;10.13;8.93;;;8.20;99.90;;;;;;5063787;28;20058;-68
2022/05/03 00:40:14;;;;;;;13.27;7.57;;;8.30;99.90;;;;;;5080051;28;20303;-68
2022/05/03 00:42:58;;;;;;;10.75;7.70;;;8.90;99.90;;;;;;5062021;28;20071;-70
2022/05/03 00:45:48;;;;;;;12.27;9.13;;;8.90;99.90;;;;;;5062885;28;20112;-70
2022/05/03 00:48:17;;;;;;;11.45;8.95;;;8.50;99.90;;;;;;5084165;28;20063;-68
2022/05/03 00:50:49;;;;;;;10.80;7.85;;;8.50;99.90;;;;;;5100972;28;20032;-71
2022/05/03 00:53:28;;;;;;;10.88;8.07;;;8.40;99.90;;;;;;5080270;28;20246;-68
2022/05/03 00:56:12;;;;;;;11.27;8.18;;;8.40;99.90;;;;;;5051626;28;20047;-68
2022/05/03 00:59:06;;;;;;;13.27;9.10;;;8.50;99.90;;;;;;5063582;28;20211;-68
2022/05/03 01:01:41;;;;;;;11.00;8.52;;;8.70;99.90;;;;;;5046035;28;20045;-68
2022/05/03 01:04:32;;;;;;;12.05;9.05;;;8.80;99.90;;;;;;5057551;28;20043;-69
2022/05/03 01:07:36;;;;;;;14.07;9.55;;;8.80;99.90;;;;;;5065042;28;20036;-69
2022/05/03 01:10:12;;;;;;;12.55;9.45;;;8.80;99.90;;;;;;5061752;28;20037;-69
2022/05/03 01:12:43;;;;;;;12.02;8.90;;;8.90;99.90;;;;;;5104593;28;20036;-68
2022/05/03 01:15:12;;;;;;;12.32;9.82;;;8.90;99.90;;;;;;5068634;28;20196;-68
2022/05/03 01:17:44;;;;;;;12.95;10.00;;;8.90;99.90;;;;;;5062867;28;20036;-68
2022/05/03 01:20:15;;;;;;;11.32;9.05;;;8.90;99.90;;;;;;5066687;28;20055;-69
2022/05/03 01:23:01;;;;;;;13.23;9.20;;;8.90;99.90;;;;;;5102989;28;20092;-68
2022/05/03 01:25:43;;;;;;;;;;;9.00;99.90;;;;;;5069086;28;20096;-69
2022/05/03 01:28:32;;;;;;;10.30;8.43;;;9.10;99.90;;;;;;5102180;28;19912;-69
2022/05/03 01:31:10;;;;;;;11.82;9.18;;;9.20;99.90;;;;;;5069527;28;20028;-68
2022/05/03 01:33:41;;;;;;;11.68;8.57;;;9.10;99.90;;;;;;5069149;28;20025;-71
2022/05/03 01:36:09;;;;;;;11.75;9.93;;;9.10;99.90;;;;;;5065636;28;20028;-70
2022/05/03 01:38:43;;;;;;;10.68;9.23;;;9.20;99.90;;;;;;5044505;28;20093;-69
2022/05/03 01:41:18;;;;;;;12.65;9.52;;;9.30;99.90;;;;;;5062017;28;20036;-67
2022/05/03 01:44:09;;;;;;;11.15;9.45;;;9.30;99.90;;;;;;5105449;28;20248;-68
2022/05/03 01:46:40;;;;;;;13.35;9.30;;;9.30;99.90;;;;;;5076772;28;20037;-69
2022/05/03 01:52:27;;;;;;;13.32;9.52;;;9.50;99.90;;;;;;5072851;28;20048;-69
2022/05/03 01:55:17;;;;;;;12.15;8.88;;;9.60;99.90;;;;;;5064895;28;20257;-69
2022/05/03 01:57:57;;;;;;;10.35;8.88;;;9.60;99.90;;;;;;5105507;28;20369;-69
2022/05/03 02:00:23;;;;;;;11.73;9.27;;;9.60;99.90;;;;;;5062174;28;20039;-68
2022/05/03 02:03:16;;;;;;;11.68;8.50;;;9.60;99.90;;;;;;5100759;27;20397;-70
2022/05/03 02:06:16;;;;;;;11.52;9.50;;;9.50;99.90;;;;;;5078857;28;20081;-69
2022/05/03 02:09:05;;;;;;;9.93;8.48;;;9.60;99.90;;;;;;5041845;28;20040;-68
2022/05/03 02:12:13;;;;;;;11.82;9.20;;;9.60;99.90;;;;;;5071800;28;20099;-69
2022/05/03 02:14:49;;;;;;;10.88;8.98;;;9.60;99.90;;;;;;4994112;28;20037;-69
2022/05/03 02:17:43;;;;;;;12.35;10.32;;;9.70;99.90;;;;;;5044915;28;20242;-69
2022/05/03 02:20:36;;;;;;;13.13;10.32;;;9.70;99.90;;;;;;5057599;28;20064;-70
2022/05/03 02:23:24;;;;;;;12.05;10.63;;;9.70;99.90;;;;;;5077795;28;20050;-70
2022/05/03 02:26:17;;;;;;;10.70;9.05;;;9.70;99.90;;;;;;5072175;28;20063;-70
2022/05/03 02:28:53;;;;;;;11.60;9.88;;;9.80;99.90;;;;;;5073323;28;20052;-70
2022/05/03 02:31:31;;;;;;;12.27;10.32;;;9.80;99.90;;;;;;5060287;28;20041;-69
2022/05/03 02:34:13;;;;;;;12.70;10.13;;;9.80;99.90;;;;;;5093874;28;20066;-69
2022/05/03 02:36:47;;;;;;;11.68;9.93;;;9.80;99.90;;;;;;5072261;28;20259;-70
2022/05/03 02:39:19;;;;;;;13.63;10.38;;;9.90;99.90;;;;;;5059533;28;20029;-69
2022/05/03 02:41:48;;;;;;;11.43;9.50;;;9.80;99.90;;;;;;5071034;28;20192;-69
2022/05/03 02:44:14;;;;;;;13.13;10.32;;;9.90;99.90;;;;;;5110877;27;20264;-70
2022/05/03 02:47:08;;;;;;;10.88;9.60;;;10.00;99.90;;;;;;5079358;28;20064;-69
2022/05/03 02:49:37;;;;;;;12.73;10.82;;;10.10;99.90;;;;;;5058697;28;20082;-67
2022/05/03 02:52:40;;;;;;;11.73;10.13;;;10.20;99.90;;;;;;5064570;28;20103;-68
2022/05/03 02:55:27;;;;;;;12.10;10.27;;;10.20;99.90;;;;;;5093215;28;20037;-68
2022/05/03 02:58:04;;;;;;;12.38;10.63;;;10.40;99.90;;;;;;5063282;28;20043;-69
2022/05/03 03:04:01;;;;;;;12.80;10.68;;;10.50;99.90;;;;;;5107910;28;20214;-67
2022/05/03 03:06:36;;;;;;;13.85;11.63;;;10.60;99.90;;;;;;5105300;28;20042;-69
2022/05/03 03:09:03;;;;;;;15.68;12.57;;;10.60;99.90;;;;;;5049332;28;20327;-70
2022/05/03 03:12:02;;;;;;;13.57;12.18;;;10.70;99.90;;;;;;5057517;28;20059;-69
2022/05/03 03:14:34;;;;;;;16.88;12.35;;;10.60;99.90;;;;;;5074950;28;20020;-69
2022/05/03 03:17:10;;;;;;;16.20;12.43;;;10.70;99.90;;;;;;5082796;28;20066;-71
2022/05/03 03:20:07;;;;;;;13.57;12.18;;;10.80;99.90;;;;;;5065844;28;20032;-70
2022/05/03 03:22:36;;;;;;;12.82;11.50;;;10.70;99.90;;;;;;5069959;28;20254;-70
2022/05/03 03:25:03;;;;;;;14.90;12.65;;;10.60;99.90;;;;;;5081642;28;20043;-69
2022/05/03 03:27:31;;;;;;;15.32;12.55;;;10.50;99.90;;;;;;5073346;28;20354;-71
2022/05/03 03:29:58;;;;;;;14.23;12.05;;;10.70;99.90;;;;;;5078242;28;20302;-69
2022/05/03 03:32:25;;;;;;;14.48;12.77;;;10.80;99.90;;;;;;5074574;28;20036;-70
2022/05/03 03:34:59;;;;;;;16.42;11.75;;;10.80;99.90;;;;;;5070267;28;20069;-70
2022/05/03 03:37:28;;;;;;;15.75;12.40;;;11.00;99.90;;;;;;5109618;28;20028;-69
2022/05/03 03:39:54;;;;;;;16.00;13.10;;;11.10;99.90;;;;;;5105104;28;20113;-68
2022/05/03 03:42:20;;;;;;;15.25;13.13;;;11.20;99.90;;;;;;5072421;28;20052;-69
2022/05/03 03:44:46;;;;;;;16.67;12.93;;;11.10;99.90;;;;;;5078506;28;20044;-69
2022/05/03 03:47:14;;;;;;;18.75;14.25;;;11.20;99.90;;;;;;5073300;28;20025;-68
2022/05/03 03:49:40;;;;;;;20.05;15.52;;;11.20;99.90;;;;;;5086999;28;20032;-68
2022/05/03 03:52:10;;;;;;;19.92;15.05;;;11.30;99.90;;;;;;5075692;28;20034;-68
2022/05/03 03:54:37;;;;;;;18.52;15.50;;;11.30;99.90;;;;;;5068414;28;20028;-68
2022/05/03 03:57:04;;;;;;;23.30;15.15;;;11.40;99.90;;;;;;5081659;28;20047;-69
2022/05/03 03:59:34;;;;;;;19.85;14.75;;;11.40;99.90;;;;;;5095194;28;20120;-68
2022/05/03 04:02:01;;;;;;;18.35;14.95;;;11.40;99.90;;;;;;5071388;28;20043;-70
2022/05/03 04:04:32;;;;;;;19.77;15.45;;;11.60;99.90;;;;;;5089461;28;20318;-70
2022/05/03 04:06:59;;;;;;;21.23;14.73;;;11.60;99.90;;;;;;5085897;28;20043;-69
2022/05/03 04:09:25;;;;;;;20.52;15.60;;;11.70;99.90;;;;;;5072077;28;20040;-69
2022/05/03 04:11:51;;;;;;;19.27;14.80;;;11.60;99.90;;;;;;5092212;28;20091;-69
2022/05/03 04:14:16;;;;;;;17.98;14.82;;;11.60;99.90;;;;;;5100358;27;20310;-69
2022/05/03 04:16:42;;;;;;;18.48;13.68;;;11.60;99.90;;;;;;5113560;27;20038;-68
2022/05/03 04:19:08;;;;;;;21.33;14.90;;;11.80;99.90;;;;;;5079827;28;20043;-69
2022/05/03 04:21:34;;;;;;;19.67;15.18;;;11.80;99.90;;;;;;5103630;28;20099;-69
2022/05/03 04:24:00;;;;;;;20.95;15.45;;;11.70;99.90;;;;;;5086813;28;20062;-67
2022/05/03 04:26:27;;;;;;;18.92;14.98;;;11.70;99.90;;;;;;5078677;28;20180;-68
2022/05/03 04:29:03;;;;;;;18.80;15.15;;;11.70;99.90;;;;;;5073764;28;20039;-70
2022/05/03 04:31:33;;;;;;;22.95;15.43;;;11.90;99.90;;;;;;5077957;28;20032;-69
2022/05/03 04:34:03;;;;;;;19.83;15.18;;;11.90;99.90;;;;;;5068051;28;20299;-69
2022/05/03 04:36:33;;;;;;;20.40;14.75;;;11.80;99.90;;;;;;5060792;28;20028;-70
2022/05/03 04:39:03;;;;;;;18.42;13.73;;;11.90;99.90;;;;;;5085907;28;20047;-68
2022/05/03 04:41:29;;;;;;;18.35;13.60;;;12.00;99.90;;;;;;5064270;28;20040;-69
2022/05/03 04:43:55;;;;;;;19.33;15.32;;;11.90;99.90;;;;;;5066227;28;20088;-68
2022/05/03 04:46:24;;;;;;;19.88;15.32;;;12.00;99.90;;;;;;5072634;28;20037;-69
2022/05/03 04:48:56;;;;;;;18.63;15.23;;;11.90;99.90;;;;;;5078602;28;20558;-68
2022/05/03 04:51:24;;;;;;;23.05;15.55;;;11.90;99.90;;;;;;5101489;27;20155;-68
2022/05/03 04:53:50;;;;;;;18.58;14.93;;;11.90;99.90;;;;;;5050831;28;20320;-68
2022/05/03 04:56:23;;;;;;;19.25;15.73;;;12.00;99.90;;;;;;5057994;28;20031;-68
2022/05/03 04:58:51;;;;;;;20.95;15.82;;;11.90;99.90;;;;;;5056636;28;20348;-69
2022/05/03 05:01:17;;;;;;;22.75;16.85;;;12.00;99.90;;;;;;5077469;28;20311;-69
2022/05/03 05:03:44;;;;;;;23.00;16.77;;;12.20;99.90;;;;;;5047377;28;20099;-69
2022/05/03 05:06:11;;;;;;;20.45;16.08;;;12.10;99.90;;;;;;5047469;28;20305;-70
2022/05/03 05:08:42;;;;;;;22.50;17.50;;;12.20;99.90;;;;;;5064095;28;20076;-69
2022/05/03 05:11:08;;;;;;;20.60;16.20;;;12.20;99.90;;;;;;5061244;28;20201;-68
2022/05/03 05:13:36;;;;;;;24.70;17.10;;;12.00;99.90;;;;;;5079103;28;20036;-70
2022/05/03 05:16:02;;;;;;;21.90;16.92;;;12.00;99.90;;;;;;5065694;28;20215;-69
2022/05/03 05:18:28;;;;;;;25.67;17.77;;;12.20;99.90;;;;;;5072537;28;20046;-68
2022/05/03 05:20:54;;;;;;;24.80;16.52;;;12.20;99.90;;;;;;5067165;28;20028;-70
2022/05/03 05:23:19;;;;;;;23.55;18.00;;;12.20;99.90;;;;;;5040652;28;20331;-69
2022/05/03 05:25:47;;;;;;;23.48;17.08;;;12.10;99.90;;;;;;5111574;28;20055;-68
2022/05/03 05:28:14;;;;;;;23.85;17.65;;;12.30;99.90;;;;;;5081552;28;20047;-68
2022/05/03 05:30:40;;;;;;;27.30;18.27;;;12.20;99.90;;;;;;5064068;28;20033;-68
2022/05/03 05:33:06;;;;;;;25.88;17.83;;;12.10;99.90;;;;;;5055523;28;20041;-68
2022/05/03 05:35:32;;;;;;;21.75;17.33;;;12.20;99.90;;;;;;5061000;28;20235;-69
2022/05/03 05:37:58;;;;;;;23.75;18.10;;;12.20;99.90;;;;;;5065857;28;20025;-68
2022/05/03 05:40:24;;;;;;;23.73;18.45;;;12.20;99.90;;;;;;5062434;28;20107;-68
2022/05/03 05:42:50;;;;;;;21.92;17.27;;;12.10;99.90;;;;;;5079469;28;20339;-68
2022/05/03 05:45:17;;;;;;;23.23;18.17;;;12.20;99.90;;;;;;5042951;28;20098;-67
2022/05/03 05:47:43;;;;;;;21.80;17.70;;;12.10;99.90;;;;;;5064157;28;20096;-69
2022/05/03 05:50:12;;;;;;;23.35;17.75;;;12.20;99.90;;;;;;5065907;28;20399;-67
2022/05/03 05:55:23;;;;;;;22.98;18.20;;;12.30;99.90;;;;;;5060090;28;20045;-69
2022/05/03 05:57:49;;;;;;;26.77;19.15;;;12.40;99.90;;;;;;5077113;28;20140;-68
2022/05/03 06:00:16;;;;;;;29.38;19.80;;;12.30;99.90;;;;;;5080956;28;20103;-69
2022/05/03 06:02:42;;;;;;;29.65;20.45;;;12.40;99.90;;;;;;5074458;28;20055;-70
2022/05/03 06:05:11;;;;;;;27.70;20.08;;;12.30;99.90;;;;;;5071778;28;20032;-71
2022/05/03 06:07:39;;;;;;;29.88;20.58;;;12.30;99.90;;;;;;5090742;28;20322;-70
2022/05/03 06:10:05;;;;;;;32.38;22.38;;;12.50;99.90;;;;;;5107437;28;20024;-68
2022/05/03 06:12:31;;;;;;;31.95;20.23;;;12.50;99.90;;;;;;5068923;28;20055;-70
2022/05/03 06:14:57;;;;;;;23.42;16.30;;;12.70;99.90;;;;;;5093483;28;20287;-69
2022/05/03 06:17:23;;;;;;;25.08;15.95;;;12.30;99.90;;;;;;5071659;28;20082;-70
2022/05/03 06:19:49;;;;;;;23.52;14.10;;;12.70;99.90;;;;;;5059254;28;20071;-70
2022/05/03 06:22:15;;;;;;;22.25;14.60;;;12.50;99.90;;;;;;5059991;28;20025;-69
2022/05/03 06:24:42;;;;;;;23.25;12.07;;;12.80;99.90;;;;;;5062191;28;20028;-70
2022/05/03 06:27:08;;;;;;;19.90;9.00;;;12.90;99.90;;;;;;5083578;28;20086;-70
2022/05/03 06:29:33;;;;;;;15.23;6.97;;;12.60;99.90;;;;;;5071691;28;20029;-70
2022/05/03 06:31:59;;;;;;;12.60;6.50;;;12.50;99.90;;;;;;5044467;28;20035;-68
2022/05/03 06:34:25;;;;;;;10.95;5.30;;;12.90;99.90;;;;;;5044091;28;20024;-69
2022/05/03 06:36:51;;;;;;;9.27;4.88;;;12.80;99.90;;;;;;5056740;28;20103;-69
2022/05/03 06:39:17;;;;;;;10.73;4.97;;;12.40;99.90;;;;;;5060276;28;20048;-68
2022/05/03 06:41:43;;;;;;;10.05;4.47;;;12.50;99.90;;;;;;5037537;28;20071;-68
2022/05/03 06:44:09;;;;;;;13.32;4.07;;;12.80;99.90;;;;;;5079287;28;20044;-68
2022/05/03 06:46:35;;;;;;;11.18;4.05;;;12.80;99.90;;;;;;5067964;28;20036;-68
2022/05/03 06:49:00;;;;;;;14.73;4.85;;;12.50;99.90;;;;;;5083011;28;20028;-68
2022/05/03 06:51:26;;;;;;;7.97;4.05;;;12.80;99.90;;;;;;5101720;28;20024;-70
2022/05/03 06:53:52;;;;;;;12.85;3.80;;;12.80;99.90;;;;;;5063274;28;20051;-70
2022/05/03 06:56:18;;;;;;;9.25;4.30;;;12.40;99.90;;;;;;5062352;28;20039;-68
2022/05/03 06:58:44;;;;;;;10.52;3.65;;;12.40;99.90;;;;;;5065370;28;20192;-67
2022/05/03 07:01:11;;;;;;;12.23;4.13;;;12.70;99.90;;;;;;5085606;28;20231;-70
2022/05/03 07:03:38;;;;;;;11.05;4.55;;;12.70;99.90;;;;;;5062778;28;20040;-69
2022/05/03 07:06:04;;;;;;;14.00;4.75;;;12.60;99.90;;;;;;5079538;28;20036;-70
2022/05/03 07:08:31;;;;;;;10.23;3.85;;;12.80;99.90;;;;;;5064931;28;20036;-69
2022/05/03 07:10:57;;;;;;;13.50;4.60;;;12.80;99.90;;;;;;5029781;28;20020;-71
2022/05/03 07:13:23;;;;;;;9.80;4.22;;;12.80;99.90;;;;;;5085140;28;20211;-69
2022/05/03 07:15:57;;;;;;;12.00;4.45;;;12.70;99.90;;;;;;5115482;28;20032;-70
2022/05/03 07:23:53;;;;;;;15.23;6.03;;;12.60;99.90;;;;;;5076671;28;20028;-71
2022/05/03 07:26:19;;;;;;;12.98;5.28;;;12.50;99.90;;;;;;5073736;28;20092;-71
2022/05/03 07:28:48;;;;;;;14.10;5.35;;;12.90;99.90;;;;;;5051040;28;20307;-70
2022/05/03 07:31:16;;;;;;;13.48;4.78;;;12.80;99.90;;;;;;5079780;28;20199;-70
2022/05/03 07:33:41;;;;;;;13.77;4.82;;;12.90;99.90;;;;;;5046291;28;20041;-69
2022/05/03 07:36:11;;;;;;;15.57;5.07;;;12.60;99.90;;;;;;5030310;28;20075;-70
2022/05/03 07:38:37;;;;;;;14.10;4.85;;;12.90;99.90;;;;;;5079684;28;20263;-69
2022/05/03 07:41:04;;;;;;;14.00;5.07;;;12.80;99.90;;;;;;5078321;28;20230;-71
2022/05/03 07:43:29;;;;;;;12.27;4.78;;;12.90;99.90;;;;;;5067089;28;20048;-71
2022/05/03 07:45:55;;;;;;;13.30;4.80;;;12.80;99.90;;;;;;5061482;28;20094;-69
2022/05/03 07:48:22;;;;;;;12.30;4.43;;;12.70;99.90;;;;;;5095851;28;20032;-70
2022/05/03 07:50:47;;;;;;;17.33;5.00;;;12.50;99.90;;;;;;5045172;28;20036;-70
2022/05/03 07:53:13;;;;;;;15.50;4.85;;;12.40;99.90;;;;;;5095611;28;20204;-72
2022/05/03 07:56:11;;;;;;;13.82;4.43;;;12.50;99.90;;;;;;5078503;28;20223;-70
2022/05/03 07:58:37;;;;;;;13.07;4.50;;;12.60;99.90;;;;;;5062434;28;20301;-71
2022/05/03 08:01:05;;;;;;;15.27;4.70;;;12.60;99.90;;;;;;5061682;28;20040;-69
2022/05/03 08:03:31;;;;;;;8.60;4.18;;;12.60;99.90;;;;;;5061828;28;20040;-71
2022/05/03 08:05:57;;;;;;;14.90;4.93;;;12.50;99.90;;;;;;5078285;28;20149;-68
2022/05/03 08:08:25;;;;;;;16.02;4.57;;;12.20;99.90;;;;;;5045862;28;20109;-68
2022/05/03 08:10:51;;;;;;;13.10;4.03;;;12.50;99.90;;;;;;5061301;28;20032;-71
2022/05/03 08:13:25;;;;;;;;;;;11.70;99.90;;;;;;5079514;28;20046;-72
2022/05/03 08:15:51;;;;;;;15.52;4.85;;;11.60;99.90;;;;;;5078036;28;19920;-69
2022/05/03 08:18:17;;;;;;;11.18;4.13;;;11.30;99.90;;;;;;5061903;28;20044;-69
2022/05/03 08:20:43;;;;;;;13.77;4.25;;;11.40;99.90;;;;;;5061545;28;20048;-70
2022/05/03 08:23:09;;;;;;;13.23;3.75;;;11.20;99.90;;;;;;5095553;28;20283;-70
2022/05/03 08:25:36;;;;;;;9.02;3.85;;;11.20;99.90;;;;;;5078524;28;20310;-72
2022/05/03 08:28:02;;;;;;;12.48;3.97;;;11.30;99.90;;;;;;5044960;28;20078;-67
2022/05/03 08:30:31;;;;;;;11.68;3.70;;;11.30;99.90;;;;;;5061615;28;20036;-68
2022/05/03 08:33:00;;;;;;;18.10;4.07;;;11.30;99.90;;;;;;5046023;28;20043;-68
2022/05/03 08:35:26;;;;;;;11.30;3.83;;;11.00;99.90;;;;;;5078032;28;20040;-68
2022/05/03 08:43:20;;;;;;;10.48;3.13;;;10.90;99.90;;;;;;5060675;28;20119;-70
2022/05/03 08:45:48;;;;;;;12.82;3.45;;;10.80;99.90;;;;;;5074646;28;20067;-69
2022/05/03 08:48:16;;;;;;;9.55;2.92;;;10.80;99.90;;;;;;5058151;28;20262;-70
2022/05/03 08:50:43;;;;;;;10.80;2.83;;;10.70;99.90;;;;;;5060762;28;20282;-69
2022/05/03 08:53:15;;;;;;;11.25;3.55;;;10.80;99.90;;;;;;5062240;28;20107;-70
2022/05/03 08:55:41;;;;;;;8.80;3.13;;;10.50;99.90;;;;;;5045131;28;20041;-69
2022/05/03 08:58:07;;;;;;;9.77;2.70;;;10.60;99.90;;;;;;5112044;28;20036;-71
2022/05/03 09:00:36;;;;;;;11.57;2.95;;;10.60;99.90;;;;;;5061601;28;20046;-69
2022/05/03 09:03:15;;;;;;;12.50;3.22;;;11.00;99.90;;;;;;5077886;28;20098;-71
2022/05/03 09:05:46;;;;;;;10.05;2.67;;;10.80;99.90;;;;;;5046742;28;20036;-70
2022/05/03 09:08:12;;;;;;;10.50;2.88;;;10.90;99.90;;;;;;5078216;28;20033;-70
2022/05/03 09:10:42;;;;;;;11.52;3.50;;;10.90;99.90;;;;;;5045126;28;20043;-70
2022/05/03 09:13:18;;;;;;;10.68;2.50;;;10.90;99.90;;;;;;5078203;28;20036;-70
2022/05/03 09:15:48;;;;;;;8.48;3.50;;;10.90;99.90;;;;;;5061334;28;20335;-70
2022/05/03 09:18:47;;;;;;;13.52;2.90;;;11.20;99.90;;;;;;5061363;28;20036;-70
2022/05/03 09:24:15;;;;;;;15.38;3.88;;;11.30;99.90;;;;;;5078117;28;20048;-69
2022/05/03 09:26:56;;;;;;;8.88;2.45;;;11.20;99.90;;;;;;5061450;28;20032;-70
2022/05/03 09:30:05;;;;;;;8.90;2.72;;;11.40;99.90;;;;;;5077705;28;20045;-70
2022/05/03 09:32:43;;;;;;;10.10;3.30;;;11.30;99.90;;;;;;5061295;28;20065;-70
2022/05/03 09:35:34;;;;;;;11.38;2.80;;;11.30;99.90;;;;;;5060616;28;20040;-69
2022/05/03 09:38:06;;;;;;;10.27;2.80;;;11.40;99.90;;;;;;5077196;28;20040;-70
2022/05/03 09:43:57;;;;;;;10.00;3.15;;;11.40;99.90;;;;;;5063363;28;19924;-69
2022/05/03 09:46:23;;;;;;;12.27;2.85;;;11.40;99.90;;;;;;5060545;28;20335;-70
2022/05/03 09:48:54;;;;;;;7.40;2.85;;;11.50;99.90;;;;;;5094159;28;20078;-70
2022/05/03 09:51:21;;;;;;;7.75;2.85;;;11.40;99.90;;;;;;5060794;28;20208;-69
2022/05/03 09:54:16;;;;;;;6.88;2.53;;;11.50;99.90;;;;;;5060262;28;20081;-70
2022/05/03 09:56:47;;;;;;;7.20;2.85;;;11.50;99.90;;;;;;5038746;28;20048;-69
2022/05/03 09:59:13;;;;;;;8.35;2.58;;;11.70;99.90;;;;;;5060547;28;20119;-70
2022/05/03 10:01:40;;;;;;;7.40;2.33;;;11.70;99.90;;;;;;5044206;28;20041;-69
2022/05/03 10:04:08;;;;;;;8.35;3.17;;;11.80;99.90;;;;;;5093726;28;20354;-69
2022/05/03 10:06:47;;;;;;;8.65;3.10;;;12.10;99.90;;;;;;5076479;28;20113;-70
2022/05/03 10:09:13;;;;;;;7.45;2.65;;;12.40;99.90;;;;;;5060020;28;20041;-69
2022/05/03 10:11:40;;;;;;;8.07;2.45;;;12.10;99.90;;;;;;5060197;28;20403;-70
2022/05/03 10:14:07;;;;;;;7.75;2.70;;;12.50;99.90;;;;;;5076681;28;20236;-72
2022/05/03 10:22:05;;;;;;;4.80;2.20;;;12.60;99.90;;;;;;5074769;28;20052;-70
2022/05/03 10:24:53;;;;;;;6.88;2.50;;;12.60;99.90;;;;;;5060405;28;20396;-70
2022/05/03 10:27:37;;;;;;;8.93;2.00;;;12.60;99.90;;;;;;5093435;28;20045;-69
2022/05/03 10:30:20;;;;;;;9.18;2.20;;;12.50;99.90;;;;;;5059721;28;20073;-69
2022/05/03 10:33:20;;;;;;;7.05;2.30;;;12.60;99.90;;;;;;5059765;28;20067;-70
2022/05/03 10:35:50;;;;;;;5.75;2.10;;;12.70;99.90;;;;;;5076320;28;20040;-69
2022/05/03 10:38:44;;;;;;;;;;;;;;;;;;;;;
2022/05/03 10:41:11;;;;;;;8.40;2.40;;;12.90;99.90;;;;;;5076251;28;20277;-69
2022/05/03 10:43:38;;;;;;;6.53;2.10;;;12.70;99.90;;;;;;5059673;28;20052;-71
2022/05/03 10:46:11;;;;;;;7.60;2.13;;;12.90;99.90;;;;;;5075977;28;20335;-71
2022/05/03 10:48:41;;;;;;;7.97;2.63;;;12.30;99.90;;;;;;5110211;28;20036;-71
2022/05/03 10:51:11;;;;;;;7.25;2.60;;;12.80;99.90;;;;;;5109679;28;20032;-70
2022/05/03 10:54:00;;;;;;;3.70;1.67;;;13.20;99.90;;;;;;5076182;28;20055;-70
2022/05/03 10:56:26;;;;;;;8.23;2.13;;;12.90;99.90;;;;;;5059529;28;20040;-71
2022/05/03 10:59:14;;;;;;;3.65;1.70;;;12.80;99.90;;;;;;5058937;28;20146;-70
2022/05/03 11:01:55;;;;;;;7.47;2.45;;;12.90;99.90;;;;;;5076073;28;20051;-70
2022/05/03 11:04:22;;;;;;;6.75;2.22;;;12.80;99.90;;;;;;5059281;28;20036;-70
2022/05/03 11:06:49;;;;;;;4.85;1.90;;;12.80;99.90;;;;;;5109995;28;20047;-70
2022/05/03 11:09:50;;;;;;;5.50;2.20;;;13.20;99.90;;;;;;5059042;28;20040;-71
2022/05/03 11:12:28;;;;;;;;;;;;;;;;;;;;;
2022/05/03 11:15:10;;;;;;;5.55;1.58;;;13.10;99.90;;;;;;5109379;28;20083;-71
2022/05/03 11:17:45;;;;;;;6.32;1.90;;;12.90;99.90;;;;;;5059462;28;20116;-71
2022/05/03 11:20:10;;;;;;;3.45;1.95;;;12.60;99.90;;;;;;5058931;28;20041;-69
2022/05/03 11:22:36;;;;;;;3.50;1.73;;;12.80;99.90;;;;;;5093053;28;20044;-71
2022/05/03 11:25:08;;;;;;;7.93;2.28;;;13.00;99.90;;;;;;5059145;28;20338;-69
2022/05/03 11:27:34;;;;;;;7.70;2.00;;;12.90;99.90;;;;;;5059064;28;20344;-69
2022/05/03 11:30:06;;;;;;;3.35;1.77;;;12.70;99.90;;;;;;5058606;28;20103;-71
2022/05/03 11:32:37;;;;;;;4.32;1.77;;;12.50;99.90;;;;;;5058983;28;20111;-70
2022/05/03 11:35:09;;;;;;;6.70;1.80;;;12.60;99.90;;;;;;5075344;28;20258;-71
2022/05/03 11:37:43;;;;;;;4.05;1.55;;;12.70;99.90;;;;;;5059186;28;20103;-72
2022/05/03 11:40:09;;;;;;;7.53;2.08;;;12.70;99.90;;;;;;5109119;28;20054;-70
2022/05/03 11:42:46;;;;;;;3.45;1.58;;;13.50;99.90;;;;;;5092189;28;20090;-71
2022/05/03 11:45:13;;;;;;;5.63;1.70;;;13.70;99.90;;;;;;5058646;28;20474;-72
2022/05/03 11:47:50;;;;;;;10.00;2.28;;;13.20;99.90;;;;;;5075260;28;20087;-71
2022/05/03 11:56:09;;;;;;;5.85;1.60;;;12.90;99.90;;;;;;5060655;28;20048;-70
2022/05/03 11:58:36;;;;;;;;;;;12.90;99.90;;;;;;5059276;28;20044;-71
2022/05/03 12:01:13;;;;;;;5.05;1.80;;;12.70;99.90;;;;;;5074833;28;19916;-71
2022/05/03 12:03:48;;;;;;;5.25;1.98;;;12.50;99.90;;;;;;5058528;28;20158;-71
2022/05/03 12:06:15;;;;;;;2.95;1.60;;;12.60;99.90;;;;;;5074908;28;20041;-71
2022/05/03 12:08:41;;;;;;;5.95;2.10;;;12.90;99.90;;;;;;5075284;28;20068;-70
2022/05/03 12:11:21;;;;;;;6.80;2.08;;;12.80;99.90;;;;;;5058080;28;20090;-72
2022/05/03 12:13:47;;;;;;;7.43;2.00;;;13.00;99.90;;;;;;5075198;28;20044;-70
2022/05/03 12:16:16;;;;;;;6.22;2.00;;;12.80;99.90;;;;;;5075184;28;20116;-69
2022/05/03 12:18:48;;;;;;;4.88;2.05;;;13.10;99.90;;;;;;5075027;28;20048;-70
2022/05/03 12:21:17;;;;;;;5.70;1.95;;;12.80;99.90;;;;;;5074731;28;20040;-72
2022/05/03 12:23:48;;;;;;;4.43;2.03;;;13.00;99.90;;;;;;5058583;28;20052;-70
2022/05/03 12:26:35;;;;;;;5.40;1.92;;;13.30;99.90;;;;;;5078497;28;20067;-71
2022/05/03 12:29:13;;;;;;;7.03;2.13;;;12.80;99.90;;;;;;5061603;28;20044;-70
2022/05/03 12:32:02;;;;;;;7.78;1.90;;;13.20;99.90;;;;;;5078894;28;20297;-70
2022/05/03 12:34:35;;;;;;;10.82;1.90;;;13.70;99.90;;;;;;5078776;28;20246;-70
2022/05/03 12:37:04;;;;;;;4.95;1.85;;;13.80;99.90;;;;;;5078346;28;20047;-71
2022/05/03 12:39:56;;;;;;;;;;;;;;;;;;;;;
2022/05/03 12:42:39;;;;;;;;;;;13.60;99.90;;;;;;5064966;28;20119;-72
2022/05/03 12:45:51;;;;;;;9.18;2.20;;;14.10;99.90;;;;;;5061361;28;19920;-71
2022/05/03 12:48:17;;;;;;;9.60;2.40;;;14.10;99.90;;;;;;5060837;28;20366;-70
2022/05/03 12:50:43;;;;;;;6.95;2.08;;;14.40;99.90;;;;;;5061822;28;20036;-69
2022/05/03 12:53:32;;;;;;;;;;;;;;;;;;;;;
2022/05/03 12:59:07;;;;;;;11.80;2.15;;;14.40;99.90;;;;;;5079324;28;20090;-70
2022/05/03 13:01:33;;;;;;;3.33;1.75;;;14.00;99.90;;;;;;5061516;28;20255;-70
2022/05/03 13:03:59;;;;;;;5.88;1.90;;;14.50;99.90;;;;;;5111297;28;20112;-70
2022/05/03 13:06:25;;;;;;;5.53;1.90;;;14.40;99.90;;;;;;5061636;28;20342;-69
2022/05/03 13:08:53;;;;;;;5.78;2.03;;;14.10;99.90;;;;;;5061644;28;20046;-69
2022/05/03 13:11:19;;;;;;;8.10;2.40;;;14.00;99.90;;;;;;5044548;28;20111;-70
2022/05/03 13:13:45;;;;;;;6.03;2.22;;;13.60;99.90;;;;;;5061019;28;20052;-70
2022/05/03 13:16:11;;;;;;;5.15;2.33;;;14.00;99.90;;;;;;5078152;28;20067;-70
2022/05/03 13:18:36;;;;;;;7.72;3.08;;;14.20;99.90;;;;;;5061494;28;20337;-70
2022/05/03 13:21:02;;;;;;;8.38;2.28;;;14.90;99.90;;;;;;5077331;28;20075;-70
2022/05/03 13:23:31;;;;;;;5.50;1.90;;;14.90;99.90;;;;;;5111447;28;20071;-70
2022/05/03 13:25:57;;;;;;;5.18;1.90;;;14.40;99.90;;;;;;5044377;28;20033;-71
2022/05/03 13:28:23;;;;;;;7.65;1.95;;;14.70;99.90;;;;;;5044280;28;20090;-70
2022/05/03 13:30:50;;;;;;;11.40;2.65;;;14.50;99.90;;;;;;5094835;28;20106;-72
2022/05/03 13:33:18;;;;;;;7.93;1.92;;;14.60;99.90;;;;;;5061059;28;20384;-70
2022/05/03 13:41:12;;;;;;;5.13;2.20;;;13.70;99.90;;;;;;5060456;28;20338;-69
2022/05/03 13:43:38;;;;;;;10.57;3.08;;;13.40;99.90;;;;;;5111537;28;20421;-70
2022/05/03 13:46:07;;;;;;;8.68;2.53;;;13.40;99.90;;;;;;5078623;28;20098;-69
2022/05/03 13:48:32;;;;;;;8.57;2.13;;;13.80;99.90;;;;;;5062761;28;20082;-71
2022/05/03 13:50:58;;;;;;;7.82;2.05;;;13.40;99.90;;;;;;5045622;28;20041;-70
2022/05/03 13:53:24;;;;;;;6.18;2.17;;;13.10;99.90;;;;;;5061939;28;20133;-70
2022/05/03 13:55:50;;;;;;;6.90;2.00;;;13.40;99.90;;;;;;5061492;28;20059;-69
2022/05/03 13:58:16;;;;;;;5.95;2.20;;;13.50;99.90;;;;;;5078430;28;20048;-70